Terminal Aerodrome Forecast
Issued by NWS

Home | Current Version | Previous Version | Text Only | Print | Product List | Glossary On
Versions: 1 2 3 4 5 6 7 8 9 10 11 12 13 14
000
FTAK31 PAJN 311720
TAFAGY
TAF
PAGY 311720Z 3118/0118 VRB03KT P6SM -SHRA SCT025 BKN040 OVC050
     FM010000 VRB05KT P6SM VCSH BKN040 OVC070
      AMD LTD TO CLD VIS AND WIND=

USA.gov is the U.S. government's official web portal to all federal, state and local government web resources and services.